Terminal Aerodrome Forecast
Issued by NWS Spokane, WA

Home | Current Version | Previous Version | Text Only | Print | Product List | Glossary On
Versions: 1 2 3 4 5 6 7 8 9 10 11 12 13 14 15 16 17 18 19 20 21 22 23 24 25 26 27 28 29 30 31 32 33 34 35 36 37 38 39 40 41
000
FTUS46 KOTX 292330
TAFGEG
TAF
KGEG 292330Z 3000/3024 24012G20KT P6SM FEW050 SCT080 BKN120
     FM300300 22011KT P6SM SCT080 SCT150
     FM301400 21018G24KT 6SM -SHRA SCT035 BKN050 OVC080
     FM301800 21022G30KT P6SM VCSH FEW035 BKN060=

USA.gov is the U.S. government's official web portal to all federal, state and local government web resources and services.